ブリスベン の空港の天気 - METARとTAF

ブリスベン空港 ( YBBN / BNE ) - オーストラリア クイーンズランド州ブリスベン
飛行場実況気象(Metar)
観測時間06/18 05:30 AEST (06/17 19:30 UTC)
風向・風速南南西 4m/s
視程10km以上
天気現象
なし
気温8℃
湿度81%
気圧1016hPa
METARYBBN 171930Z 21007KT CAVOK 08/05 Q1016 NOSIG
過去の天気等 Google飛行場航空写真 Wunderground天気予報

過去48時間のMETAR

飛行場予報(TAF)
発表時間: 6/18 03:12 AEST (6/17 17:12 UTC)
予報対象時間: 18日4時 AEST ~ 19日10時 AEST
風向・風速西南西 3m/s
視程10km以上
なし
18日13時 AEST から
風向・風速東北東 4m/s
視程10km以上
なし
18日18時 AEST から
風向・風速不定 2m/s
視程10km以上
少しの雲 雲底高度 1370m
19日0時 AEST から
風向・風速西南西 4m/s
視程10km以上
少しの雲 雲底高度 1220m
TAF YBBN 171712Z 1718/1824 25006KT CAVOK
FM180300 07007KT CAVOK
FM180800 VRB04KT 9999 FEW045
FM181400 25008KT 9999 FEW040